Weather at Berlin-Schönefeld Airport [CLOSED]

Public forecast

Using degrees Celsius for public forecast. Weather courtesy of forecast.io.

Current aviation weather report (METAR) for Berlin-Schönefeld Airport

Retrieved UTC (0 seconds ago):

Closest aviation forecast (TAF) to Berlin-Schönefeld Airport

Closest forecast is Berlin Brandenburg Airport, 2.0 nm (3.7 km) SSW. Retrieved 2021/07/23 18:27 UTC (3 hours ago):

TAF EDDB 231700Z 2318/2418 32006KT CAVOK BECMG 2318/2320 07004KT BECMG 2405/2408 11009KT